Time;durP1;ratioP1;P1;durP2;ratioP2;P2;SDS_P1;SDS_P2;PMS_P1;PMS_P2;Temp;Humidity;BMP_temperature;BMP_pressure;BME280_temperature;BME280_humidity;BME280_pressure;Samples;Min_cycle;Max_cycle;Signal;HPM_P1;HPM_P2
2022/11/02 00:01:27;;;;;;;5.7;3.2;;;;;;;11.36;88.45996;943.556;;;;
2022/11/02 00:04:02;;;;;;;6.1;3.2;;;;;;;11.22;89.32422;943.6449;;;;
2022/11/02 00:06:48;;;;;;;7.1;3.5;;;;;;;11.23;89.02832;943.5502;;;;
2022/11/02 00:09:35;;;;;;;8.2;3.7;;;;;;;11.24;88.58594;943.6181;;;;
2022/11/02 00:12:06;;;;;;;7.5;3.9;;;;;;;11.23;88.8916;943.527;;;;
2022/11/02 00:14:42;;;;;;;7.2;3.9;;;;;;;11.2;88.23242;943.5756;;;;
2022/11/02 00:19:56;;;;;;;6.7;4.6;;;;;;;11.17;88.70703;943.5817;;;;
2022/11/02 00:22:22;;;;;;;9.1;4;;;;;;;11.08;88.95117;943.5403;;;;
2022/11/02 00:25:05;;;;;;;8.3;4.1;;;;;;;11.07;88.77832;943.5641;;;;
2022/11/02 00:27:43;;;;;;;8.6;3.9;;;;;;;11.06;88.76465;943.5839;;;;
2022/11/02 00:30:12;;;;;;;8.8;4.7;;;;;;;11.07;88.50391;943.5745;;;;
2022/11/02 00:32:52;;;;;;;7.9;4.3;;;;;;;11.05;88.09961;943.6379;;;;
2022/11/02 00:35:33;;;;;;;7.6;3.9;;;;;;;10.94;88.26074;943.6876;;;;
2022/11/02 00:38:10;;;;;;;7.2;3.8;;;;;;;10.59;90.32422;943.7957;;;;
2022/11/02 00:40:48;;;;;;;6.2;3.6;;;;;;;10.46;90.94824;943.8283;;;;
2022/11/02 00:43:26;;;;;;;6.7;3.9;;;;;;;10.63;89.81934;943.7888;;;;
2022/11/02 00:46:06;;;;;;;7.1;3.9;;;;;;;10.59;89.68457;943.8793;;;;
2022/11/02 00:48:45;;;;;;;7.5;3.4;;;;;;;10.63;89.19141;943.913;;;;
2022/11/02 00:51:25;;;;;;;7.2;3.4;;;;;;;10.65;88.97852;943.9285;;;;
2022/11/02 00:54:05;;;;;;;7.8;3.8;;;;;;;10.54;90.52051;943.8577;;;;
2022/11/02 00:56:45;;;;;;;8.8;3.2;;;;;;;10.53;89.71875;943.9331;;;;
2022/11/02 00:59:23;;;;;;;7.4;3.5;;;;;;;10.55;89.59766;943.9366;;;;
2022/11/02 01:02:02;;;;;;;7.6;3.7;;;;;;;10.59;89.28711;943.9024;;;;
2022/11/02 01:04:39;;;;;;;7.6;3.7;;;;;;;10.49;89.63184;943.9078;;;;
2022/11/02 01:07:20;;;;;;;7.6;3.8;;;;;;;10.42;89.66211;943.9327;;;;
2022/11/02 01:09:54;;;;;;;6;3.6;;;;;;;10.47;88.97363;943.9336;;;;
2022/11/02 01:12:35;;;;;;;6;3.3;;;;;;;10.49;88.06543;943.8822;;;;
2022/11/02 01:15:30;;;;;;;8;3.6;;;;;;;10.48;88.04102;943.9171;;;;
2022/11/02 01:18:16;;;;;;;6.3;3.4;;;;;;;10.41;88.40332;943.9191;;;;
2022/11/02 01:20:53;;;;;;;5.6;3;;;;;;;10.38;88.44336;943.8862;;;;
2022/11/02 01:23:38;;;;;;;7.5;3.2;;;;;;;10.38;88.22656;943.9204;;;;
2022/11/02 01:26:25;;;;;;;5.3;3.3;;;;;;;10.3;88.0293;943.9022;;;;
2022/11/02 01:29:05;;;;;;;7.7;3.4;;;;;;;10.2;88.9541;943.8448;;;;
2022/11/02 01:31:42;;;;;;;7.1;3.4;;;;;;;10.14;89.41992;943.9494;;;;
2022/11/02 01:34:31;;;;;;;9.2;3.6;;;;;;;9.93;90.81152;943.9001;;;;
2022/11/02 01:37:08;;;;;;;6.4;3.1;;;;;;;9.97;91.18848;943.9004;;;;
2022/11/02 01:39:46;;;;;;;6;3.1;;;;;;;10.03;90.78906;943.8724;;;;
2022/11/02 01:42:23;;;;;;;10.2;3.2;;;;;;;9.99;90.46191;943.8418;;;;
2022/11/02 01:45:01;;;;;;;7.4;2.8;;;;;;;10;90.17871;943.8731;;;;
2022/11/02 01:47:45;;;;;;;7.6;3.6;;;;;;;9.97;89.94531;943.8725;;;;
2022/11/02 01:50:30;;;;;;;5.9;3.4;;;;;;;10.03;89.58008;943.8572;;;;
2022/11/02 01:53:16;;;;;;;7.5;3.4;;;;;;;9.91;90.02539;943.7997;;;;
2022/11/02 01:55:42;;;;;;;6.2;3.6;;;;;;;9.95;89.91699;943.7798;;;;
2022/11/02 01:58:23;;;;;;;8.2;3.8;;;;;;;9.9;90.36133;943.7509;;;;
2022/11/02 02:01:01;;;;;;;6.4;3.1;;;;;;;9.8;90.43359;943.7247;;;;
2022/11/02 02:03:41;;;;;;;5.5;3.1;;;;;;;9.77;90.24414;943.736;;;;
2022/11/02 02:06:16;;;;;;;8.8;3.6;;;;;;;9.74;90.375;943.7307;;;;
2022/11/02 02:09:14;;;;;;;7.2;2.9;;;;;;;9.71;90.15234;943.726;;;;
2022/11/02 02:11:58;;;;;;;5.6;3.2;;;;;;;9.76;89.48047;943.7183;;;;
2022/11/02 02:14:36;;;;;;;10.1;3.6;;;;;;;9.72;89.63086;943.6984;;;;
2022/11/02 02:17:13;;;;;;;6.2;3.7;;;;;;;9.73;89.50879;943.7058;;;;
2022/11/02 02:19:51;;;;;;;7.2;3.3;;;;;;;9.77;89.14941;943.6954;;;;
2022/11/02 02:22:38;;;;;;;7.3;3.5;;;;;;;9.74;88.98438;943.752;;;;
2022/11/02 02:25:17;;;;;;;5.5;3.4;;;;;;;9.69;89.27148;943.7566;;;;
2022/11/02 02:28:09;;;;;;;6.7;3.3;;;;;;;9.64;89.2832;943.7244;;;;
2022/11/02 02:30:53;;;;;;;8.9;3.1;;;;;;;9.41;91.62598;943.8356;;;;
2022/11/02 02:33:34;;;;;;;6.4;3;;;;;;;9.5;91.06641;943.7894;;;;
2022/11/02 02:36:17;;;;;;;7;3.2;;;;;;;9.54;90.50391;943.8698;;;;
2022/11/02 02:39:00;;;;;;;5.8;3.6;;;;;;;9.47;90.5;943.8642;;;;
2022/11/02 02:41:39;;;;;;;8.2;3.1;;;;;;;9.39;90.59961;943.8679;;;;
2022/11/02 02:44:06;;;;;;;5.3;2.8;;;;;;;9.46;89.88379;944.0039;;;;
2022/11/02 02:46:39;;;;;;;6;2.9;;;;;;;9.52;89.34766;943.9966;;;;
2022/11/02 02:49:14;;;;;;;7.3;3.3;;;;;;;9.51;89.25684;944.0129;;;;
2022/11/02 02:51:42;;;;;;;9;3.7;;;;;;;9.42;89.33887;944.0555;;;;
2022/11/02 02:54:07;;;;;;;5.8;3.2;;;;;;;9.4;89.46191;944.0389;;;;
2022/11/02 02:56:32;;;;;;;8.7;3.2;;;;;;;9.31;87.76953;944.0806;;;;
2022/11/02 03:03:01;;;;;;;7.4;3.7;;;;;;;9.1;90.53809;944.1206;;;;
2022/11/02 03:05:52;;;;;;;6.7;4.1;;;;;;;9.13;90.99902;944.0887;;;;
2022/11/02 03:08:22;;;;;;;6.1;3.4;;;;;;;9.21;90.98047;944.1747;;;;
2022/11/02 03:10:47;;;;;;;7.3;3.6;;;;;;;9.25;90.69629;944.196;;;;
2022/11/02 03:13:13;;;;;;;7.7;3.3;;;;;;;9.13;91.56836;944.1707;;;;
2022/11/02 03:15:49;;;;;;;7.4;3.5;;;;;;;9.12;92.44238;944.2133;;;;
2022/11/02 03:18:18;;;;;;;9.2;3.4;;;;;;;9.28;91.28027;944.1458;;;;
2022/11/02 03:20:51;;;;;;;6.7;3.5;;;;;;;9.27;91.10938;944.2522;;;;
2022/11/02 03:23:18;;;;;;;5.5;3.6;;;;;;;8.91;93.0791;944.2664;;;;
2022/11/02 03:29:18;;;;;;;5;3.1;;;;;;;9.03;93.5957;944.3309;;;;
2022/11/02 03:31:44;;;;;;;6.9;4.2;;;;;;;9.14;92.80859;944.3591;;;;
2022/11/02 03:34:11;;;;;;;8.1;4;;;;;;;9.23;92.40918;944.3711;;;;
2022/11/02 03:36:36;;;;;;;10.3;3.8;;;;;;;9.29;91.83984;944.4473;;;;
2022/11/02 03:39:02;;;;;;;7;3.7;;;;;;;9.36;91.35449;944.421;;;;
2022/11/02 03:41:34;;;;;;;6.8;3.5;;;;;;;9.32;91.11914;944.4226;;;;
2022/11/02 03:43:59;;;;;;;5.4;3;;;;;;;9.22;91.64453;944.3915;;;;
2022/11/02 03:46:24;;;;;;;5.7;3.2;;;;;;;9.27;91.3125;944.4197;;;;
2022/11/02 03:48:56;;;;;;;5.8;3.1;;;;;;;9.15;91.90234;944.3792;;;;
2022/11/02 03:51:27;;;;;;;5.7;3.2;;;;;;;9.15;92.18848;944.3976;;;;
2022/11/02 03:53:53;;;;;;;9.4;3.5;;;;;;;9.17;92.23633;944.4227;;;;
2022/11/02 03:56:18;;;;;;;8.8;3.3;;;;;;;9.16;92.13184;944.4239;;;;
2022/11/02 03:58:43;;;;;;;8.8;3.4;;;;;;;9.27;91.99609;944.4388;;;;
2022/11/02 04:06:19;;;;;;;7.2;3.2;;;;;;;9.41;91.19531;944.5577;;;;
2022/11/02 04:09:41;;;;;;;7.7;3.4;;;;;;;9.49;91.16504;944.5333;;;;
2022/11/02 04:14:40;;;;;;;8.3;3.4;;;;;;;9.39;91.30566;944.5705;;;;
2022/11/02 04:19:33;;;;;;;6.4;3;;;;;;;9.55;91.46094;944.5553;;;;
2022/11/02 04:27:27;;;;;;;11;4.3;;;;;;;9.79;90.5;944.5723;;;;
2022/11/02 04:29:52;;;;;;;13.9;5.3;;;;;;;9.89;90.19043;944.6226;;;;
2022/11/02 04:33:31;;;;;;;11.2;4.7;;;;;;;9.96;90.08984;944.6486;;;;
2022/11/02 04:34:43;;;;;;;11;3.9;;;;;;;10.03;90.16211;944.6442;;;;
2022/11/02 04:38:41;;;;;;;5.7;3.4;;;;;;;10.08;90.07031;944.6873;;;;
2022/11/02 04:39:40;;;;;;;8.4;3.6;;;;;;;10.13;89.77344;944.6639;;;;
2022/11/02 04:42:05;;;;;;;6.9;3.4;;;;;;;10.12;89.26953;944.6206;;;;
2022/11/02 04:44:33;;;;;;;7.6;3.5;;;;;;;10.15;88.8877;944.6101;;;;
2022/11/02 04:49:49;;;;;;;7.3;3.8;;;;;;;10.15;88.8877;944.6588;;;;
2022/11/02 04:52:17;;;;;;;6.2;3.5;;;;;;;10.09;88.875;944.6478;;;;
2022/11/02 04:54:42;;;;;;;5.5;3.4;;;;;;;10.11;88.18262;944.6794;;;;
2022/11/02 04:57:09;;;;;;;28.8;13.1;;;;;;;10;88.82227;944.7235;;;;
2022/11/02 04:59:34;;;;;;;41.3;17.3;;;;;;;9.98;88.78418;944.7249;;;;
2022/11/02 05:02:04;;;;;;;23.9;11.4;;;;;;;9.97;88.91895;944.7253;;;;
2022/11/02 05:04:29;;;;;;;13;6.4;;;;;;;10.02;88.91699;944.76;;;;
2022/11/02 05:06:59;;;;;;;12.8;5;;;;;;;9.97;89.38672;944.7994;;;;
2022/11/02 05:09:23;;;;;;;8.8;4.3;;;;;;;9.95;90.20215;944.8156;;;;
2022/11/02 05:11:52;;;;;;;8.4;4;;;;;;;9.93;90.63086;944.8262;;;;
2022/11/02 05:14:17;;;;;;;6.4;3.6;;;;;;;9.98;90.4834;944.7852;;;;
2022/11/02 05:16:44;;;;;;;7.2;4.1;;;;;;;10.03;90.10449;944.8223;;;;
2022/11/02 05:19:13;;;;;;;6.9;3.7;;;;;;;10.04;89.7207;944.798;;;;
2022/11/02 05:21:38;;;;;;;8.8;4.7;;;;;;;9.95;90.31543;944.7981;;;;
2022/11/02 05:24:03;;;;;;;6.9;3.9;;;;;;;9.99;90.13184;944.853;;;;
2022/11/02 05:26:28;;;;;;;6.5;3.4;;;;;;;9.9;90.55566;944.7985;;;;
2022/11/02 05:35:46;;;;;;;8.1;4.3;;;;;;;10;90.80566;944.8301;;;;
2022/11/02 05:38:14;;;;;;;8.9;4.5;;;;;;;10.01;90.77148;944.8105;;;;
2022/11/02 05:40:40;;;;;;;8.7;4.2;;;;;;;10.02;90.62891;944.8373;;;;
2022/11/02 05:43:05;;;;;;;8.6;3.7;;;;;;;10.02;90.68652;944.8565;;;;
2022/11/02 05:45:35;;;;;;;9.1;4.2;;;;;;;9.98;91.4043;944.8265;;;;
2022/11/02 05:48:00;;;;;;;5.8;3.6;;;;;;;9.97;91.57617;944.8979;;;;
2022/11/02 05:50:31;;;;;;;7.7;3.8;;;;;;;10.02;91.33594;944.8373;;;;
2022/11/02 05:53:02;;;;;;;7.6;4.4;;;;;;;10.02;91.08398;944.8675;;;;
2022/11/02 05:55:29;;;;;;;6.5;4.6;;;;;;;10.04;90.55371;944.8569;;;;
2022/11/02 05:57:54;;;;;;;9.6;5.4;;;;;;;10.01;90.83301;944.8801;;;;
2022/11/02 06:00:23;;;;;;;11.2;5.9;;;;;;;10.01;90.93359;944.8951;;;;
2022/11/02 06:02:53;;;;;;;10.9;5.2;;;;;;;9.96;91.2998;944.8898;;;;
2022/11/02 06:05:18;;;;;;;10;5.3;;;;;;;10.06;91.10254;944.9567;;;;
2022/11/02 06:07:47;;;;;;;7.4;4.2;;;;;;;10.13;90.70703;944.948;;;;
2022/11/02 06:10:13;;;;;;;7.1;3.9;;;;;;;10.19;90.5625;944.993;;;;
2022/11/02 06:15:05;;;;;;;4.8;3.2;;;;;;;10.31;90.23145;944.9459;;;;
2022/11/02 06:18:06;;;;;;;6.8;3.6;;;;;;;10.4;89.75977;944.9995;;;;
2022/11/02 06:20:30;;;;;;;7;3.7;;;;;;;10.43;89.32227;944.9871;;;;
2022/11/02 06:22:56;;;;;;;7.5;3.6;;;;;;;10.31;90.6084;944.9769;;;;
2022/11/02 06:25:21;;;;;;;8.4;3.8;;;;;;;10.3;91.77051;944.9592;;;;
2022/11/02 06:27:46;;;;;;;6.9;3.3;;;;;;;10.22;91.74316;944.9863;;;;
2022/11/02 06:30:20;;;;;;;5.5;3.1;;;;;;;10.32;91.18066;944.9414;;;;
2022/11/02 06:32:47;;;;;;;9.5;3.5;;;;;;;10.5;90.0791;944.9263;;;;
2022/11/02 06:35:12;;;;;;;5.4;3.3;;;;;;;10.61;89.3457;944.8945;;;;
2022/11/02 06:37:46;;;;;;;6.6;3.4;;;;;;;10.69;88.84863;944.9446;;;;
2022/11/02 06:40:18;;;;;;;6.9;3.2;;;;;;;10.71;88.67188;944.9434;;;;
2022/11/02 06:42:50;;;;;;;10;3.6;;;;;;;10.8;88.35645;944.942;;;;
2022/11/02 06:45:15;;;;;;;6.3;3.4;;;;;;;10.87;87.8457;944.9922;;;;
2022/11/02 06:47:46;;;;;;;8.9;4.4;;;;;;;10.85;87.6709;945.0173;;;;
2022/11/02 06:50:20;;;;;;;8.1;4.4;;;;;;;10.88;87.55078;945.0594;;;;
2022/11/02 06:52:50;;;;;;;7.4;3.6;;;;;;;10.72;88.35352;945.0114;;;;
2022/11/02 06:55:15;;;;;;;9.1;3.7;;;;;;;10.56;88.97168;945.0708;;;;
2022/11/02 06:57:45;;;;;;;8.3;4.2;;;;;;;10.49;89.49316;945.0726;;;;
2022/11/02 07:00:11;;;;;;;6.5;3.7;;;;;;;10.31;89.59277;944.9992;;;;
2022/11/02 07:02:35;;;;;;;8.5;3.7;;;;;;;10.31;90.82715;945.0877;;;;
2022/11/02 07:05:01;;;;;;;7;3.5;;;;;;;10.49;89.6416;945.0367;;;;
2022/11/02 07:07:28;;;;;;;6;3.3;;;;;;;10.63;88.30078;945.0686;;;;
2022/11/02 07:09:54;;;;;;;7.3;3.9;;;;;;;10.81;87.7207;945.1414;;;;
2022/11/02 07:12:19;;;;;;;7.8;3.8;;;;;;;10.81;87.5498;945.1453;;;;
2022/11/02 07:14:45;;;;;;;10.6;3.9;;;;;;;10.77;87.53809;945.1644;;;;
2022/11/02 07:17:10;;;;;;;7.5;3;;;;;;;10.76;87.66406;945.1301;;;;
2022/11/02 07:19:36;;;;;;;7.2;3.7;;;;;;;11.01;86.86914;945.0618;;;;
2022/11/02 07:22:01;;;;;;;6.9;3.6;;;;;;;11.13;85.85254;945.0691;;;;
2022/11/02 07:24:32;;;;;;;6;3.3;;;;;;;11.31;85.05371;945.0917;;;;
2022/11/02 07:27:00;;;;;;;8.1;3.2;;;;;;;11.37;84.37988;945.0936;;;;
2022/11/02 07:29:25;;;;;;;8.6;3.6;;;;;;;11.32;84.31152;945.1269;;;;
2022/11/02 07:32:12;;;;;;;8.2;3.5;;;;;;;11.41;84.38672;945.1584;;;;
2022/11/02 07:37:24;;;;;;;5.8;3.1;;;;;;;11.49;84.03809;945.1167;;;;
2022/11/02 07:39:53;;;;;;;5.2;3;;;;;;;11.67;83.34863;945.2059;;;;
2022/11/02 07:42:19;;;;;;;4.8;2.8;;;;;;;11.77;82.52051;945.1556;;;;
2022/11/02 07:44:43;;;;;;;7.3;3.2;;;;;;;11.93;82.3125;945.2148;;;;
2022/11/02 07:50:54;;;;;;;6;3.2;;;;;;;12.85;79.7666;945.2078;;;;
2022/11/02 07:53:21;;;;;;;8.3;3;;;;;;;13.8;76.75391;945.2172;;;;
2022/11/02 07:55:46;;;;;;;5.9;2.9;;;;;;;14.2;74.95801;945.2216;;;;
2022/11/02 07:58:15;;;;;;;7;2.4;;;;;;;14.31;73.15918;945.277;;;;
2022/11/02 08:00:44;;;;;;;5.2;2.8;;;;;;;14.2;74.12891;945.3722;;;;
2022/11/02 08:03:09;;;;;;;7.9;3.3;;;;;;;14.07;74.21191;945.4241;;;;
2022/11/02 08:05:37;;;;;;;5.1;3;;;;;;;14.1;74.44629;945.4563;;;;
2022/11/02 08:08:02;;;;;;;7.5;3.1;;;;;;;13.96;74.03223;945.4454;;;;
2022/11/02 08:10:32;;;;;;;5.1;3.4;;;;;;;13.99;74.63477;945.432;;;;
2022/11/02 08:13:01;;;;;;;7.2;3;;;;;;;14.17;74.03223;945.5161;;;;
2022/11/02 08:15:26;;;;;;;6.1;3.2;;;;;;;14.26;74.18652;945.4802;;;;
2022/11/02 08:17:51;;;;;;;7.6;4;;;;;;;14.28;74.08594;945.5115;;;;
2022/11/02 08:20:17;;;;;;;8.4;3.6;;;;;;;14.31;74.66602;945.4589;;;;
2022/11/02 08:22:45;;;;;;;11.5;4;;;;;;;14.33;74.63477;945.4951;;;;
2022/11/02 08:25:10;;;;;;;7.2;3.4;;;;;;;14.06;74.50781;945.4112;;;;
2022/11/02 08:27:39;;;;;;;6.7;3.4;;;;;;;13.73;75.40723;945.4559;;;;
2022/11/02 08:30:05;;;;;;;7.3;3.4;;;;;;;14;76.05176;945.481;;;;
2022/11/02 08:32:35;;;;;;;8.3;3.2;;;;;;;14.35;74.55859;945.4416;;;;
2022/11/02 08:35:01;;;;;;;6.2;3.3;;;;;;;14.51;73.38672;945.4777;;;;
2022/11/02 08:37:26;;;;;;;7.9;3.8;;;;;;;14.65;72.44238;945.5156;;;;
2022/11/02 08:39:56;;;;;;;7.5;3.7;;;;;;;14.8;72.28223;945.4986;;;;
2022/11/02 08:42:31;;;;;;;5.6;2.9;;;;;;;14.94;72.50195;945.4803;;;;
2022/11/02 08:44:57;;;;;;;9.1;3.7;;;;;;;15.14;71.80957;945.4871;;;;
2022/11/02 08:47:25;;;;;;;9.2;4;;;;;;;15.29;70.67871;945.4597;;;;
2022/11/02 08:49:56;;;;;;;6.8;3.3;;;;;;;15.13;71.3916;945.4285;;;;
2022/11/02 08:52:27;;;;;;;6.2;3.6;;;;;;;15.23;70.80762;945.4146;;;;
2022/11/02 08:54:57;;;;;;;6.5;3.3;;;;;;;15.23;70.74805;945.4403;;;;
2022/11/02 08:57:22;;;;;;;6.9;2.9;;;;;;;15.12;69.7168;945.4757;;;;
2022/11/02 08:59:50;;;;;;;8.9;3.1;;;;;;;14.98;69.49707;945.4532;;;;
2022/11/02 09:02:16;;;;;;;8.2;3.5;;;;;;;14.99;70.76953;945.4645;;;;
2022/11/02 09:04:42;;;;;;;8;3.5;;;;;;;15.07;69.86914;945.4363;;;;
2022/11/02 09:07:07;;;;;;;7.6;3.4;;;;;;;15.01;69.20313;945.4478;;;;
2022/11/02 09:09:37;;;;;;;7;2.8;;;;;;;14.94;68.75391;945.4154;;;;
2022/11/02 09:12:02;;;;;;;5.2;2.8;;;;;;;14.97;69.55371;945.4051;;;;
2022/11/02 09:14:29;;;;;;;5.1;3.3;;;;;;;14.96;68.91895;945.4387;;;;
2022/11/02 09:16:54;;;;;;;7.9;3.3;;;;;;;14.94;68.98438;945.4691;;;;
2022/11/02 09:19:22;;;;;;;6.3;3.3;;;;;;;14.99;69.83301;945.4436;;;;
2022/11/02 09:21:48;;;;;;;5;2.8;;;;;;;15.04;69.89941;945.4465;;;;
2022/11/02 09:24:16;;;;;;;8.1;3.5;;;;;;;15.17;69.95605;945.3836;;;;
2022/11/02 09:26:41;;;;;;;7.1;3.4;;;;;;;15.31;69.35449;945.3956;;;;
2022/11/02 09:29:10;;;;;;;4.6;2.8;;;;;;;14.92;69.25684;945.4601;;;;
2022/11/02 09:31:35;;;;;;;6.6;3.3;;;;;;;14.57;71.09082;945.4755;;;;
2022/11/02 09:34:01;;;;;;;9.7;3.7;;;;;;;14.4;72.56348;945.4899;;;;
2022/11/02 09:36:26;;;;;;;9.6;3.6;;;;;;;14.65;72.89258;945.4971;;;;
2022/11/02 09:38:53;;;;;;;9.2;3.5;;;;;;;14.61;70.90234;945.5206;;;;
2022/11/02 09:41:19;;;;;;;6.9;2.9;;;;;;;14.66;70.57715;945.5076;;;;
2022/11/02 09:43:44;;;;;;;7.3;3.4;;;;;;;14.75;70.33887;945.5441;;;;
2022/11/02 09:46:11;;;;;;;6.6;3;;;;;;;14.79;70.28613;945.5667;;;;
2022/11/02 09:48:41;;;;;;;4.4;2.9;;;;;;;14.79;70.29785;945.6077;;;;
2022/11/02 09:51:06;;;;;;;5.9;3;;;;;;;14.65;70.74805;945.6326;;;;
2022/11/02 09:53:32;;;;;;;5.9;2.9;;;;;;;14.53;71.45508;945.5818;;;;
2022/11/02 09:55:57;;;;;;;7.7;3.2;;;;;;;14.7;71.96582;945.5903;;;;
2022/11/02 09:58:22;;;;;;;6.5;2.9;;;;;;;14.72;71.87695;945.6434;;;;
2022/11/02 10:00:50;;;;;;;8.1;3;;;;;;;14.74;71.55664;945.6588;;;;
2022/11/02 10:03:17;;;;;;;6.3;2.9;;;;;;;14.67;71.75391;945.6607;;;;
2022/11/02 10:05:43;;;;;;;6.6;3;;;;;;;14.45;72.3291;945.5758;;;;
2022/11/02 10:08:08;;;;;;;7;3.1;;;;;;;14.48;72.75977;945.6553;;;;
2022/11/02 10:10:36;;;;;;;4.8;2.8;;;;;;;14.53;72.58398;945.6589;;;;
2022/11/02 10:13:06;;;;;;;7.4;3.2;;;;;;;14.42;73.5459;945.7003;;;;
2022/11/02 10:16:40;;;;;;;8.3;3.1;;;;;;;14.41;74.0625;945.7464;;;;
2022/11/02 10:19:06;;;;;;;8.8;3.1;;;;;;;14.56;74.36328;945.6967;;;;
2022/11/02 10:21:31;;;;;;;6.8;2.7;;;;;;;14.62;74.01758;945.614;;;;
2022/11/02 10:23:56;;;;;;;7.3;2.9;;;;;;;14.87;73.78125;945.5843;;;;
2022/11/02 10:26:21;;;;;;;7.5;2.7;;;;;;;15.12;73.59375;945.6353;;;;
2022/11/02 10:28:46;;;;;;;9.8;3.8;;;;;;;15.32;72.96875;945.6091;;;;
2022/11/02 10:31:12;;;;;;;6.5;3.2;;;;;;;15.23;72.34277;945.5903;;;;
2022/11/02 10:33:37;;;;;;;4.6;2.6;;;;;;;15.45;72.61035;945.5311;;;;
2022/11/02 10:36:02;;;;;;;5;2.9;;;;;;;15.65;71.43066;945.5336;;;;
2022/11/02 10:38:27;;;;;;;7.4;3.6;;;;;;;15.76;70.37207;945.5314;;;;
2022/11/02 10:40:55;;;;;;;6.7;3.2;;;;;;;15.78;70.94238;945.48;;;;
2022/11/02 10:43:21;;;;;;;10.2;3.7;;;;;;;15.71;71.6709;945.4919;;;;
2022/11/02 10:45:50;;;;;;;7.6;3.3;;;;;;;15.65;70.72559;945.5313;;;;
2022/11/02 10:49:04;;;;;;;5.8;3.2;;;;;;;15.53;70.46289;945.5416;;;;
2022/11/02 10:51:31;;;;;;;3.6;2.6;;;;;;;15.42;70.72266;945.5519;;;;
2022/11/02 10:54:00;;;;;;;5.5;2.9;;;;;;;15.45;71.28125;945.4925;;;;
2022/11/02 10:56:25;;;;;;;7.9;3.1;;;;;;;15.5;70.64355;945.5175;;;;
2022/11/02 10:58:51;;;;;;;6.4;3;;;;;;;15.49;70.33008;945.4612;;;;
2022/11/02 11:01:16;;;;;;;10;4.9;;;;;;;15.53;70.31445;945.4429;;;;
2022/11/02 11:03:42;;;;;;;10.2;4;;;;;;;15.53;70.94824;945.4188;;;;
2022/11/02 11:08:32;;;;;;;7.1;4.2;;;;;;;15.54;71.25098;945.3972;;;;
2022/11/02 11:11:00;;;;;;;6.1;3.5;;;;;;;15.42;71.40332;945.3773;;;;
2022/11/02 11:13:25;;;;;;;7.2;3.6;;;;;;;15.37;71.51172;945.3981;;;;
2022/11/02 11:15:50;;;;;;;6;2.9;;;;;;;15.48;70.84668;945.3473;;;;
2022/11/02 11:18:17;;;;;;;5.9;2.4;;;;;;;15.54;70.87012;945.349;;;;
2022/11/02 11:20:43;;;;;;;6.2;2.3;;;;;;;15.51;71.04883;945.3859;;;;
2022/11/02 11:23:10;;;;;;;3.8;2.2;;;;;;;15.49;70.89746;945.3096;;;;
2022/11/02 11:25:35;;;;;;;3.6;2.1;;;;;;;15.22;72.58301;945.3279;;;;
2022/11/02 11:28:00;;;;;;;3.6;1.9;;;;;;;15.1;72.00879;945.2502;;;;
2022/11/02 11:30:25;;;;;;;4.2;2;;;;;;;15.23;72.09961;945.3649;;;;
2022/11/02 11:32:55;;;;;;;5.1;2.5;;;;;;;15.18;73.26953;945.2553;;;;
2022/11/02 11:35:23;;;;;;;8.6;2.9;;;;;;;14.94;75.0625;945.3151;;;;
2022/11/02 11:37:48;;;;;;;4.4;2.4;;;;;;;15.05;74.49316;945.2766;;;;
2022/11/02 11:40:20;;;;;;;4.1;1.8;;;;;;;15.23;73.78516;945.3448;;;;
2022/11/02 11:42:48;;;;;;;5;2.1;;;;;;;15.35;72.59277;945.2464;;;;
2022/11/02 11:45:13;;;;;;;5.2;2;;;;;;;15.49;72.84766;945.3056;;;;
2022/11/02 11:47:43;;;;;;;4.6;1.9;;;;;;;15.29;72.90723;945.2856;;;;
2022/11/02 11:50:17;;;;;;;6.5;2.3;;;;;;;15.35;72.1543;945.2874;;;;
2022/11/02 11:52:44;;;;;;;4.5;1.9;;;;;;;15.29;73.17188;945.2607;;;;
2022/11/02 11:55:18;;;;;;;4.5;1.9;;;;;;;15.3;72.34082;945.3128;;;;
2022/11/02 11:57:43;;;;;;;5.1;1.8;;;;;;;15.42;72.49023;945.2612;;;;
2022/11/02 12:00:15;;;;;;;6.7;2.3;;;;;;;15.54;72.56738;945.2992;;;;
2022/11/02 12:02:45;;;;;;;5.3;2.3;;;;;;;15.57;71.6123;945.2535;;;;
2022/11/02 12:05:11;;;;;;;5.8;1.8;;;;;;;15.43;70.34473;945.165;;;;
2022/11/02 12:07:37;;;;;;;4.2;1.6;;;;;;;15.38;70.96875;945.2272;;;;
2022/11/02 12:10:03;;;;;;;5.3;1.8;;;;;;;15.31;71.21289;945.2062;;;;
2022/11/02 12:12:34;;;;;;;6.1;1.8;;;;;;;15.28;70.72266;945.178;;;;
2022/11/02 12:14:59;;;;;;;4.7;1.9;;;;;;;15.16;71.15332;945.236;;;;
2022/11/02 12:17:27;;;;;;;4.1;1.8;;;;;;;15.18;71.72168;945.1992;;;;
2022/11/02 12:19:53;;;;;;;4.5;2.4;;;;;;;15.21;72.09863;945.1334;;;;
2022/11/02 12:22:18;;;;;;;4.4;1.5;;;;;;;15.13;70.92969;945.1379;;;;
2022/11/02 12:24:46;;;;;;;5.2;1.9;;;;;;;15.1;70.72949;945.1283;;;;
2022/11/02 12:27:11;;;;;;;6;1.9;;;;;;;15;70.56348;945.0812;;;;
2022/11/02 12:29:37;;;;;;;3.4;1.8;;;;;;;14.95;71.18848;945.0714;;;;
2022/11/02 12:32:05;;;;;;;4.3;1.6;;;;;;;15.03;71.35156;945.0559;;;;
2022/11/02 12:34:36;;;;;;;6.1;1.9;;;;;;;15.03;71.75586;945.0142;;;;
2022/11/02 12:37:01;;;;;;;3.7;2;;;;;;;15.06;72.30273;944.9028;;;;
2022/11/02 12:39:26;;;;;;;4.3;1.5;;;;;;;14.97;70.90332;944.9953;;;;
2022/11/02 12:41:54;;;;;;;4.4;2;;;;;;;14.87;71.16406;944.9828;;;;
2022/11/02 12:44:26;;;;;;;4.7;1.6;;;;;;;14.88;69.8623;944.9043;;;;
2022/11/02 12:46:50;;;;;;;3.8;1.6;;;;;;;14.95;69.96582;944.9606;;;;
2022/11/02 12:49:17;;;;;;;4.7;1.5;;;;;;;15.04;68.31934;944.9444;;;;
2022/11/02 12:51:41;;;;;;;4.6;1.7;;;;;;;15.09;69.39941;944.8755;;;;
2022/11/02 12:54:06;;;;;;;3.9;1.6;;;;;;;15.2;69.13965;944.8694;;;;
2022/11/02 12:56:32;;;;;;;3.9;1.5;;;;;;;15.3;69.00684;944.8555;;;;
2022/11/02 12:58:57;;;;;;;4.7;2.1;;;;;;;15.38;68.45215;944.8741;;;;
2022/11/02 13:01:22;;;;;;;4.7;2.1;;;;;;;15.43;68.60059;944.8519;;;;
2022/11/02 13:03:53;;;;;;;4.3;1.5;;;;;;;15.49;67.74316;944.8441;;;;
2022/11/02 13:06:21;;;;;;;5.6;1.9;;;;;;;15.5;68.26465;944.8505;;;;
2022/11/02 13:08:46;;;;;;;3.2;1.8;;;;;;;15.42;69.00391;944.7469;;;;
2022/11/02 13:11:12;;;;;;;5;1.7;;;;;;;15.46;68.57031;944.7228;;;;
2022/11/02 13:13:37;;;;;;;3.5;1.8;;;;;;;15.47;68.59375;944.8031;;;;
2022/11/02 13:16:04;;;;;;;2.6;1.6;;;;;;;15.43;67.75684;944.7902;;;;
2022/11/02 13:18:33;;;;;;;6.6;1.8;;;;;;;15.4;67.46387;944.7481;;;;
2022/11/02 13:20:58;;;;;;;4.8;1.6;;;;;;;15.31;67.56641;944.7849;;;;
2022/11/02 13:23:28;;;;;;;4.8;1.7;;;;;;;15.26;67.87012;944.6965;;;;
2022/11/02 13:25:54;;;;;;;3.9;1.4;;;;;;;15.15;67.83008;944.777;;;;
2022/11/02 13:28:20;;;;;;;3.1;1.3;;;;;;;15.1;66.71387;944.7825;;;;
2022/11/02 13:30:47;;;;;;;3.6;1.6;;;;;;;15;65.54395;944.7065;;;;
2022/11/02 13:33:17;;;;;;;3.9;1.2;;;;;;;14.87;65.97461;944.6501;;;;
2022/11/02 13:35:43;;;;;;;3.5;1.3;;;;;;;14.83;66.7168;944.6163;;;;
2022/11/02 13:38:13;;;;;;;3.4;1.6;;;;;;;14.72;67.72656;944.6372;;;;
2022/11/02 13:40:38;;;;;;;2.3;1.5;;;;;;;14.82;66.87891;944.6339;;;;
2022/11/02 13:43:03;;;;;;;5.6;1.4;;;;;;;14.84;67.22754;944.5818;;;;
2022/11/02 13:45:33;;;;;;;3.2;1.8;;;;;;;14.92;66.76563;944.6318;;;;
2022/11/02 13:48:02;;;;;;;4.9;1.2;;;;;;;14.76;66.18848;944.6021;;;;
2022/11/02 13:50:28;;;;;;;3.3;1.5;;;;;;;14.82;66.00098;944.5881;;;;
2022/11/02 13:52:53;;;;;;;3;1.4;;;;;;;14.66;66.98047;944.605;;;;
2022/11/02 13:55:26;;;;;;;3.6;1.6;;;;;;;14.85;66.06445;944.5129;;;;
2022/11/02 13:57:57;;;;;;;3.8;1.5;;;;;;;14.94;65.57031;944.4747;;;;
2022/11/02 14:00:28;;;;;;;4;1.6;;;;;;;14.95;65.14453;944.538;;;;
2022/11/02 14:02:57;;;;;;;4.7;1.4;;;;;;;15.03;64.78809;944.5056;;;;
2022/11/02 14:05:22;;;;;;;4;1.3;;;;;;;14.96;65.02051;944.5292;;;;
2022/11/02 14:07:49;;;;;;;4.7;1.4;;;;;;;14.87;65.82422;944.4938;;;;
2022/11/02 14:12:54;;;;;;;5.2;1.2;;;;;;;14.95;64.78711;944.5204;;;;
2022/11/02 14:15:19;;;;;;;3.2;1.5;;;;;;;14.87;65.2373;944.4664;;;;
2022/11/02 14:17:45;;;;;;;3.6;1.5;;;;;;;14.82;64.70898;944.5224;;;;
2022/11/02 14:20:14;;;;;;;4.8;1.2;;;;;;;14.79;64.7627;944.5613;;;;
2022/11/02 14:22:39;;;;;;;2;1.2;;;;;;;14.81;65.2627;944.563;;;;
2022/11/02 14:25:23;;;;;;;6.3;1.7;;;;;;;14.82;65.64355;944.6114;;;;
2022/11/02 14:27:51;;;;;;;4.2;2.2;;;;;;;14.8;66.9668;944.5862;;;;
2022/11/02 14:30:16;;;;;;;5.2;1.8;;;;;;;14.78;68.05957;944.6519;;;;
2022/11/02 14:32:41;;;;;;;4.9;1.5;;;;;;;14.76;66.56934;944.5892;;;;
2022/11/02 14:35:07;;;;;;;4.4;1.7;;;;;;;14.78;65.91504;944.611;;;;
2022/11/02 14:37:35;;;;;;;4;1.2;;;;;;;14.63;65.4668;944.6626;;;;
2022/11/02 14:40:03;;;;;;;2.8;1.2;;;;;;;14.57;64.9502;944.6972;;;;
2022/11/02 14:42:35;;;;;;;4.5;2;;;;;;;14.43;64.95313;944.6494;;;;
2022/11/02 14:45:03;;;;;;;3.8;1.4;;;;;;;14.48;65.41992;944.6191;;;;
2022/11/02 14:47:28;;;;;;;3.2;1.6;;;;;;;14.5;66.05664;944.6111;;;;
2022/11/02 14:49:55;;;;;;;2.7;1.5;;;;;;;14.47;65.51074;944.543;;;;
2022/11/02 14:52:18;;;;;;;4.8;1.6;;;;;;;14.54;65.46484;944.5305;;;;
2022/11/02 14:54:44;;;;;;;3.3;1.1;;;;;;;14.66;65.62012;944.4102;;;;
2022/11/02 14:57:09;;;;;;;4.4;1.4;;;;;;;14.74;66.12695;944.4521;;;;
2022/11/02 14:59:38;;;;;;;3.5;1.4;;;;;;;14.86;65.98438;944.4448;;;;
2022/11/02 15:02:04;;;;;;;6.1;2.7;;;;;;;14.91;65.32422;944.4361;;;;
2022/11/02 15:04:32;;;;;;;3.2;1.6;;;;;;;14.98;65.08105;944.4611;;;;
2022/11/02 15:06:57;;;;;;;5.3;2.2;;;;;;;15.04;65.35449;944.3806;;;;
2022/11/02 15:09:22;;;;;;;7.7;3.1;;;;;;;15.07;65.45117;944.3774;;;;
2022/11/02 15:11:54;;;;;;;9.9;3.2;;;;;;;15;65.62402;944.3529;;;;
2022/11/02 15:14:19;;;;;;;6.1;2.8;;;;;;;14.95;65.54883;944.4418;;;;
2022/11/02 15:16:45;;;;;;;5.6;2.9;;;;;;;14.96;66.0918;944.4066;;;;
2022/11/02 15:19:15;;;;;;;4.9;2.1;;;;;;;14.9;65.87598;944.392;;;;
2022/11/02 15:21:40;;;;;;;7.7;4.4;;;;;;;14.82;66.26758;944.3621;;;;
2022/11/02 15:24:09;;;;;;;8.7;4.8;;;;;;;14.87;65.54883;944.3173;;;;
2022/11/02 15:26:36;;;;;;;6.6;2.4;;;;;;;14.82;64.35352;944.338;;;;
2022/11/02 15:29:04;;;;;;;7.8;2.9;;;;;;;14.79;65.20117;944.2614;;;;
2022/11/02 15:31:29;;;;;;;5.6;1.9;;;;;;;14.79;65.07422;944.2791;;;;
2022/11/02 15:33:54;;;;;;;3.6;2.3;;;;;;;14.71;65.20215;944.2933;;;;